Time;durP1;ratioP1;P1;durP2;ratioP2;P2;SDS_P1;SDS_P2;PMS_P1;PMS_P2;Temp;Humidity;BMP_temperature;BMP_pressure;BME280_temperature;BME280_humidity;BME280_pressure;Samples;Min_cycle;Max_cycle;Signal;HPM_P1;HPM_P2
2022/04/15 00:02:27;;;;;;;11.57;6.60;;;11.00;1.00;;;;;;4948567;28;20677;-64
2022/04/15 00:04:57;;;;;;;10.50;7.03;;;10.90;1.00;;;;;;4944441;28;20813;-64
2022/04/15 00:07:24;;;;;;;10.17;7.17;;;10.90;1.00;;;;;;4949179;28;20234;-65
2022/04/15 00:09:51;;;;;;;10.90;7.93;;;10.90;1.00;;;;;;4943594;28;20830;-64
2022/04/15 00:12:27;;;;;;;15.87;8.00;;;10.80;1.00;;;;;;4962383;28;20194;-65
2022/04/15 00:14:55;;;;;;;13.33;8.57;;;10.80;1.00;;;;;;4963535;28;20198;-65
2022/04/15 00:17:22;;;;;;;11.20;7.43;;;10.80;1.00;;;;;;4959104;28;20198;-64
2022/04/15 00:19:49;;;;;;;12.07;8.57;;;10.80;1.00;;;;;;4961547;28;20662;-64
2022/04/15 00:22:17;;;;;;;11.87;7.80;;;10.70;1.00;;;;;;4943813;28;20237;-64
2022/04/15 00:24:44;;;;;;;13.20;8.50;;;10.70;1.00;;;;;;4932909;28;20304;-65
2022/04/15 00:27:11;;;;;;;10.90;8.83;;;10.70;1.00;;;;;;4963540;28;20257;-64
2022/04/15 00:29:38;;;;;;;11.33;8.07;;;10.70;1.00;;;;;;4962946;28;20198;-65
2022/04/15 00:32:08;;;;;;;11.43;8.17;;;10.60;53.80;;;;;;4935590;28;20202;-64
2022/04/15 00:34:35;;;;;;;12.20;8.63;;;10.70;99.90;;;;;;4946033;28;20205;-64
2022/04/15 00:37:02;;;;;;;11.40;8.70;;;10.70;99.90;;;;;;4962604;28;20618;-65
2022/04/15 00:39:30;;;;;;;11.87;7.90;;;10.70;99.90;;;;;;4962462;28;20224;-64
2022/04/15 00:41:58;;;;;;;12.03;8.40;;;10.60;99.90;;;;;;4964916;28;20198;-64
2022/04/15 00:44:25;;;;;;;10.93;9.37;;;10.60;99.90;;;;;;4949922;28;20223;-64
2022/04/15 00:46:54;;;;;;;12.33;9.47;;;10.60;99.90;;;;;;4945078;28;20684;-64
2022/04/15 00:49:21;;;;;;;13.40;8.40;;;10.50;99.90;;;;;;4962662;28;20198;-64
2022/04/15 00:51:50;;;;;;;13.13;9.07;;;10.50;99.90;;;;;;4951003;28;20208;-65
2022/04/15 00:54:19;;;;;;;11.93;7.30;;;10.40;99.90;;;;;;4945204;28;20254;-65
2022/04/15 00:56:49;;;;;;;14.37;9.30;;;10.40;1.00;;;;;;4951366;28;20203;-64
2022/04/15 00:59:18;;;;;;;16.63;9.37;;;10.40;99.90;;;;;;4945308;28;20201;-64
2022/04/15 01:01:46;;;;;;;13.40;8.60;;;10.40;99.90;;;;;;4942560;28;20246;-64
2022/04/15 01:04:15;;;;;;;11.07;8.00;;;10.40;99.90;;;;;;4944015;28;20648;-65
2022/04/15 01:06:46;;;;;;;12.07;9.20;;;10.40;1.00;;;;;;4960493;28;20236;-65
2022/04/15 01:09:14;;;;;;;12.27;8.60;;;10.40;99.90;;;;;;4938654;28;20205;-65
2022/04/15 01:11:44;;;;;;;14.33;10.00;;;10.30;99.90;;;;;;4942770;28;20637;-65
2022/04/15 01:14:13;;;;;;;11.43;9.20;;;10.30;99.90;;;;;;4951493;28;20222;-66
2022/04/15 01:16:40;;;;;;;14.17;9.00;;;10.30;1.00;;;;;;4928776;28;20207;-64
2022/04/15 01:19:07;;;;;;;13.33;9.40;;;10.30;1.00;;;;;;4952846;28;20560;-64
2022/04/15 01:21:37;;;;;;;11.87;9.47;;;10.20;99.90;;;;;;4962515;28;20237;-66
2022/04/15 01:24:05;;;;;;;13.07;9.63;;;10.10;99.90;;;;;;4947980;28;20734;-64
2022/04/15 01:26:32;;;;;;;15.57;9.60;;;10.10;99.90;;;;;;4966181;28;20191;-65
2022/04/15 01:29:03;;;;;;;12.57;8.80;;;10.00;99.90;;;;;;4965637;28;20221;-64
2022/04/15 01:31:33;;;;;;;12.83;9.03;;;10.00;1.00;;;;;;4963636;28;20187;-65
2022/04/15 01:34:01;;;;;;;12.27;9.23;;;10.00;1.00;;;;;;4948601;28;20637;-64
2022/04/15 01:36:28;;;;;;;15.80;9.60;;;10.00;1.00;;;;;;4964494;28;20231;-63
2022/04/15 01:38:56;;;;;;;13.27;8.97;;;9.90;99.90;;;;;;4963564;28;20233;-63
2022/04/15 01:41:24;;;;;;;13.00;8.67;;;9.90;99.90;;;;;;4947937;28;20265;-62
2022/04/15 01:43:54;;;;;;;15.00;9.97;;;9.80;1.00;;;;;;4964950;28;20277;-64
2022/04/15 01:46:20;;;;;;;14.47;9.90;;;9.80;1.00;;;;;;4965117;28;20724;-65
2022/04/15 01:48:47;;;;;;;12.17;7.63;;;9.70;99.90;;;;;;4952288;28;20234;-65
2022/04/15 01:51:14;;;;;;;12.73;8.20;;;9.80;1.00;;;;;;4952376;28;20207;-64
2022/04/15 01:53:41;;;;;;;11.73;7.43;;;9.90;1.00;;;;;;4964270;28;20211;-63
2022/04/15 01:56:08;;;;;;;10.13;7.03;;;9.90;1.00;;;;;;4954158;28;20256;-64
2022/04/15 01:58:35;;;;;;;12.07;7.70;;;10.00;1.00;;;;;;4953053;28;20218;-63
2022/04/15 02:01:02;;;;;;;11.70;7.40;;;9.90;99.90;;;;;;4948088;28;20191;-65
2022/04/15 02:03:29;;;;;;;13.17;6.83;;;9.80;99.90;;;;;;4947817;28;20198;-66
2022/04/15 02:05:59;;;;;;;7.93;6.80;;;9.70;99.90;;;;;;4949813;28;20782;-65
2022/04/15 02:08:26;;;;;;;9.03;6.60;;;9.70;99.90;;;;;;4953783;28;20210;-64
2022/04/15 02:10:53;;;;;;;9.10;6.97;;;9.70;99.90;;;;;;4947942;28;20215;-67
2022/04/15 02:13:20;;;;;;;10.37;7.17;;;9.60;99.90;;;;;;4938404;28;20590;-64
2022/04/15 02:15:47;;;;;;;10.43;6.80;;;9.60;99.90;;;;;;4936917;28;20195;-66
2022/04/15 02:18:14;;;;;;;12.67;6.47;;;9.50;99.90;;;;;;4965010;28;20206;-65
2022/04/15 02:20:41;;;;;;;10.33;6.40;;;9.40;99.90;;;;;;4964044;28;20257;-65
2022/04/15 02:23:08;;;;;;;13.40;7.50;;;9.40;99.90;;;;;;4948032;28;20757;-64
2022/04/15 02:25:35;;;;;;;10.93;7.57;;;9.30;99.90;;;;;;4947176;28;20222;-65
2022/04/15 02:28:02;;;;;;;10.87;6.90;;;9.30;99.90;;;;;;4946073;28;20242;-64
2022/04/15 02:30:29;;;;;;;13.33;7.73;;;9.20;99.90;;;;;;4936790;28;20202;-67
2022/04/15 02:32:56;;;;;;;11.23;7.30;;;9.20;99.90;;;;;;4944898;28;20207;-65
2022/04/15 02:35:23;;;;;;;14.83;7.03;;;9.20;1.00;;;;;;4952945;28;20978;-65
2022/04/15 02:37:50;;;;;;;14.17;8.63;;;9.20;1.00;;;;;;4963855;28;20203;-64
2022/04/15 02:40:17;;;;;;;13.57;9.07;;;9.10;99.90;;;;;;4952606;28;20261;-64
2022/04/15 02:42:47;;;;;;;12.17;7.57;;;9.10;99.90;;;;;;4953538;28;20207;-65
2022/04/15 02:45:18;;;;;;;10.57;7.87;;;9.00;99.90;;;;;;4961584;28;20752;-64
2022/04/15 02:47:49;;;;;;;11.90;8.43;;;9.00;1.00;;;;;;4949816;28;20229;-64
2022/04/15 02:50:16;;;;;;;9.37;7.87;;;8.90;1.00;;;;;;4963178;28;20191;-65
2022/04/15 02:52:45;;;;;;;11.27;7.90;;;8.90;1.00;;;;;;4962709;28;20195;-65
2022/04/15 02:55:12;;;;;;;11.93;7.63;;;8.90;1.00;;;;;;4963534;28;20234;-65
2022/04/15 02:57:42;;;;;;;14.40;8.40;;;8.80;1.00;;;;;;4937713;28;20250;-64
2022/04/15 03:00:09;;;;;;;9.63;7.50;;;8.80;1.00;;;;;;4946638;28;20734;-65
2022/04/15 03:02:37;;;;;;;12.97;8.47;;;8.70;1.00;;;;;;4931367;28;20660;-64
2022/04/15 03:05:06;;;;;;;10.40;7.70;;;8.70;1.00;;;;;;4962517;28;20246;-64
2022/04/15 03:07:34;;;;;;;8.57;6.47;;;8.70;1.00;;;;;;4944263;28;20206;-63
2022/04/15 03:10:06;;;;;;;12.07;8.50;;;8.70;1.00;;;;;;4961757;28;20565;-62
2022/04/15 03:12:42;;;;;;;15.57;9.77;;;8.90;99.90;;;;;;4963495;28;20641;-62
2022/04/15 03:15:09;;;;;;;12.57;8.40;;;9.20;99.90;;;;;;4963812;28;20202;-63
2022/04/15 03:17:36;;;;;;;11.30;7.90;;;9.60;99.90;;;;;;4944860;28;20683;-63
2022/04/15 03:20:05;;;;;;;10.43;8.33;;;9.70;99.90;;;;;;4944866;28;20202;-62
2022/04/15 03:22:39;;;;;;;11.93;8.90;;;9.90;1.00;;;;;;4947324;28;20678;-62
2022/04/15 03:25:09;;;;;;;13.73;10.27;;;10.20;1.00;;;;;;4960843;28;20207;-63
2022/04/15 03:27:36;;;;;;;14.40;8.37;;;10.70;99.90;;;;;;4962072;28;20226;-63
2022/04/15 03:30:04;;;;;;;14.37;9.87;;;11.00;1.00;;;;;;4944879;28;20207;-63
2022/04/15 03:32:31;;;;;;;15.33;9.23;;;10.50;1.00;;;;;;4962240;28;20319;-63
2022/04/15 03:34:59;;;;;;;10.53;8.73;;;10.90;1.00;;;;;;4961889;28;20281;-64
2022/04/15 03:37:26;;;;;;;14.33;10.53;;;11.00;1.00;;;;;;4945197;28;20225;-64
2022/04/15 03:39:53;;;;;;;13.10;9.00;;;11.20;1.00;;;;;;4962256;28;20207;-65
2022/04/15 03:42:20;;;;;;;10.80;8.50;;;11.00;1.00;;;;;;4945512;28;20607;-64
2022/04/15 03:44:50;;;;;;;14.30;9.67;;;10.80;1.00;;;;;;4949656;28;20214;-63
2022/04/15 03:47:18;;;;;;;13.47;9.93;;;10.60;1.00;;;;;;4947817;28;20208;-67
2022/04/15 03:49:47;;;;;;;15.67;10.93;;;10.50;1.00;;;;;;4960892;28;20221;-63
2022/04/15 03:52:16;;;;;;;15.37;10.97;;;10.80;1.00;;;;;;4962156;28;20289;-64
2022/04/15 03:54:43;;;;;;;15.23;11.20;;;10.80;1.00;;;;;;4962550;28;20285;-64
2022/04/15 03:57:10;;;;;;;16.93;11.47;;;10.90;1.00;;;;;;4944551;28;20298;-63
2022/04/15 03:59:37;;;;;;;16.70;10.97;;;11.00;1.00;;;;;;4946860;28;20202;-62
2022/04/15 04:02:04;;;;;;;16.43;11.80;;;11.00;1.00;;;;;;4944927;28;20266;-63
2022/04/15 04:04:31;;;;;;;16.87;12.37;;;10.90;1.00;;;;;;4943778;28;20223;-64
2022/04/15 04:06:58;;;;;;;13.40;10.03;;;11.00;1.00;;;;;;4961878;28;20190;-63
2022/04/15 04:09:25;;;;;;;11.93;8.60;;;11.40;1.00;;;;;;4962107;28;20234;-63
2022/04/15 04:11:53;;;;;;;14.43;11.33;;;12.10;1.00;;;;;;4962173;28;20306;-63
2022/04/15 04:14:20;;;;;;;12.13;9.33;;;12.00;99.90;;;;;;4961754;28;20198;-64
2022/04/15 04:16:47;;;;;;;15.70;12.13;;;12.00;1.00;;;;;;4961003;28;20588;-64
2022/04/15 04:19:14;;;;;;;14.17;11.43;;;12.10;99.90;;;;;;4946963;28;20204;-64
2022/04/15 04:21:44;;;;;;;14.77;10.73;;;12.10;99.90;;;;;;4967097;28;20222;-64
2022/04/15 04:24:12;;;;;;;12.20;10.13;;;11.60;99.90;;;;;;4961493;28;20264;-64
2022/04/15 04:26:39;;;;;;;13.17;11.43;;;11.80;1.00;;;;;;4962392;28;20285;-63
2022/04/15 04:29:07;;;;;;;9.23;8.27;;;12.00;1.00;;;;;;4947485;28;20211;-63
2022/04/15 04:31:38;;;;;;;15.07;10.30;;;12.20;99.90;;;;;;4950187;28;20650;-64
2022/04/15 04:34:07;;;;;;;11.77;10.10;;;12.50;99.90;;;;;;4945333;28;20199;-64
2022/04/15 04:36:34;;;;;;;12.67;9.63;;;11.80;99.90;;;;;;4960956;28;20210;-64
2022/04/15 04:39:02;;;;;;;15.73;11.00;;;11.90;99.90;;;;;;4953272;28;20682;-63
2022/04/15 04:41:29;;;;;;;12.30;9.37;;;12.20;1.00;;;;;;4945022;28;20579;-65
2022/04/15 04:43:56;;;;;;;11.83;8.57;;;12.10;1.00;;;;;;4953076;28;20222;-62
2022/04/15 04:46:23;;;;;;;9.63;8.60;;;12.00;99.90;;;;;;4946350;28;20249;-62
2022/04/15 04:48:51;;;;;;;10.47;7.80;;;12.30;1.00;;;;;;4955300;28;20198;-62
2022/04/15 04:51:18;;;;;;;8.00;7.20;;;12.40;99.90;;;;;;4953678;28;20191;-62
2022/04/15 04:53:45;;;;;;;10.90;6.73;;;12.40;99.90;;;;;;4950935;28;20202;-63
2022/04/15 04:56:15;;;;;;;8.10;6.20;;;12.70;1.00;;;;;;4965003;28;20626;-66
2022/04/15 04:58:42;;;;;;;7.53;6.70;;;12.90;1.00;;;;;;4949011;28;20198;-64
2022/04/15 05:01:09;;;;;;;7.27;6.07;;;13.00;1.00;;;;;;4955288;28;21192;-64
2022/04/15 05:03:36;;;;;;;7.90;6.20;;;12.50;1.00;;;;;;4968696;28;20232;-63
2022/04/15 05:06:03;;;;;;;12.73;6.10;;;11.80;1.00;;;;;;4948053;28;20231;-63
2022/04/15 05:08:30;;;;;;;7.87;6.57;;;11.70;1.00;;;;;;4964220;28;20203;-65
2022/04/15 05:11:00;;;;;;;8.77;6.40;;;11.70;1.00;;;;;;4955705;28;20202;-64
2022/04/15 05:13:27;;;;;;;8.33;6.10;;;11.70;1.00;;;;;;4954807;28;20207;-64
2022/04/15 05:15:54;;;;;;;7.57;5.97;;;11.60;1.00;;;;;;4963411;28;20286;-63
2022/04/15 05:18:21;;;;;;;6.77;4.83;;;11.80;1.00;;;;;;4957114;28;20234;-63
2022/04/15 05:20:48;;;;;;;5.77;4.60;;;12.30;1.00;;;;;;4954811;28;20296;-64
2022/04/15 05:23:17;;;;;;;6.00;4.77;;;12.40;1.00;;;;;;4947201;28;20213;-63
2022/04/15 05:25:44;;;;;;;8.13;5.63;;;12.50;1.00;;;;;;4955516;28;20218;-62
2022/04/15 05:28:11;;;;;;;6.07;4.90;;;11.80;1.00;;;;;;4947839;28;20265;-63
2022/04/15 05:30:38;;;;;;;7.03;4.67;;;11.70;1.00;;;;;;4964418;28;20201;-63
2022/04/15 05:33:08;;;;;;;6.33;4.70;;;12.10;10.60;;;;;;4947256;28;20278;-64
2022/04/15 05:35:38;;;;;;;5.97;5.00;;;11.70;1.00;;;;;;4953654;28;20223;-63
2022/04/15 05:38:07;;;;;;;7.07;5.23;;;12.10;1.00;;;;;;4948737;28;20217;-65
2022/04/15 05:40:34;;;;;;;6.97;5.47;;;11.50;1.00;;;;;;4954586;28;20209;-63
2022/04/15 05:43:04;;;;;;;6.70;5.50;;;11.30;1.00;;;;;;4945765;28;20199;-64
2022/04/15 05:45:35;;;;;;;8.00;5.97;;;10.90;1.00;;;;;;4946750;28;20234;-64
2022/04/15 05:48:02;;;;;;;9.50;6.20;;;11.10;1.00;;;;;;4948022;28;20198;-64
2022/04/15 05:50:29;;;;;;;8.03;6.97;;;10.90;1.00;;;;;;4930802;28;20207;-65
2022/04/15 05:52:58;;;;;;;9.63;7.10;;;10.90;1.00;;;;;;4964754;28;20214;-64
2022/04/15 05:55:26;;;;;;;11.43;7.60;;;11.00;1.00;;;;;;4931983;28;20206;-65
2022/04/15 05:57:53;;;;;;;11.53;7.23;;;11.00;1.00;;;;;;4963350;28;20212;-64
2022/04/15 06:00:20;;;;;;;8.90;6.53;;;11.00;1.00;;;;;;4952446;28;20293;-63
2022/04/15 06:02:47;;;;;;;11.17;7.77;;;11.30;1.00;;;;;;4938362;28;20561;-64
2022/04/15 06:05:22;;;;;;;8.10;7.03;;;11.00;1.00;;;;;;4945222;28;20229;-64
2022/04/15 06:07:49;;;;;;;10.33;7.17;;;11.00;1.00;;;;;;4953167;28;20195;-63
2022/04/15 06:10:16;;;;;;;8.50;7.53;;;11.00;1.00;;;;;;4952998;28;20211;-64
2022/04/15 06:13:09;;;;;;;9.10;6.90;;;11.00;1.00;;;;;;4954019;28;20297;-64
2022/04/15 06:15:41;;;;;;;9.67;7.40;;;11.00;1.00;;;;;;4946497;28;20222;-63
2022/04/15 06:18:08;;;;;;;7.67;5.93;;;11.20;1.00;;;;;;4963954;28;20609;-63
2022/04/15 06:20:35;;;;;;;10.23;7.43;;;11.20;1.00;;;;;;4951291;28;20708;-64
2022/04/15 06:23:04;;;;;;;10.13;5.83;;;11.40;1.00;;;;;;4964756;28;20710;-63
2022/04/15 06:25:31;;;;;;;8.53;7.63;;;11.80;9.80;;;;;;4963532;28;20253;-63
2022/04/15 06:27:58;;;;;;;7.80;6.17;;;11.80;1.00;;;;;;4963543;28;20820;-63
2022/04/15 06:30:27;;;;;;;9.93;7.70;;;11.90;1.00;;;;;;4938641;28;20678;-63
2022/04/15 06:32:54;;;;;;;8.87;7.40;;;11.90;1.00;;;;;;4953537;28;20210;-63
2022/04/15 06:35:21;;;;;;;9.73;6.80;;;11.90;1.00;;;;;;4963731;28;20286;-63
2022/04/15 06:37:48;;;;;;;10.20;7.77;;;11.80;1.00;;;;;;4961757;28;20202;-63
2022/04/15 06:40:15;;;;;;;10.83;7.63;;;11.70;1.00;;;;;;4966225;28;20629;-63
2022/04/15 06:42:42;;;;;;;8.20;5.97;;;11.60;1.00;;;;;;4945679;28;20191;-64
2022/04/15 06:45:11;;;;;;;6.53;5.80;;;11.70;1.00;;;;;;4960216;28;20578;-64
2022/04/15 06:47:38;;;;;;;8.57;6.57;;;12.00;1.00;;;;;;4945888;28;20203;-63
2022/04/15 06:50:06;;;;;;;7.40;6.60;;;12.00;1.00;;;;;;4960725;28;20297;-63
2022/04/15 06:52:33;;;;;;;9.80;7.07;;;12.10;1.00;;;;;;4959605;28;20278;-63
2022/04/15 06:55:00;;;;;;;11.97;6.47;;;12.30;1.00;;;;;;4947969;28;20328;-63
2022/04/15 06:57:27;;;;;;;9.97;8.63;;;12.30;1.00;;;;;;4954569;28;20290;-63
2022/04/15 06:59:54;;;;;;;9.20;7.77;;;12.20;99.90;;;;;;4952267;28;20246;-63
2022/04/15 07:02:21;;;;;;;7.87;7.07;;;12.10;99.90;;;;;;4945749;28;20194;-63
2022/04/15 07:04:48;;;;;;;8.70;7.20;;;12.00;99.90;;;;;;4943811;28;20636;-63
2022/04/15 07:07:15;;;;;;;7.97;6.40;;;12.00;1.00;;;;;;4962420;28;20225;-64
2022/04/15 07:09:42;;;;;;;7.77;6.13;;;12.00;99.90;;;;;;4948437;28;20226;-63
2022/04/15 07:12:09;;;;;;;12.13;7.13;;;12.00;99.90;;;;;;4951519;28;20234;-63
2022/04/15 07:14:36;;;;;;;12.63;7.67;;;11.80;1.00;;;;;;4961935;28;20605;-62
2022/04/15 07:17:03;;;;;;;16.00;13.57;;;11.50;1.00;;;;;;4949940;28;20230;-63
2022/04/15 07:19:30;;;;;;;27.80;21.40;;;11.50;1.00;;;;;;4945594;28;20203;-63
2022/04/15 07:21:58;;;;;;;14.97;11.90;;;11.70;1.00;;;;;;4949634;28;20562;-63
2022/04/15 07:24:27;;;;;;;14.93;11.07;;;11.70;1.00;;;;;;4961331;28;20222;-63
2022/04/15 07:26:53;;;;;;;10.30;7.87;;;11.70;1.00;;;;;;4946018;28;20230;-64
2022/04/15 07:29:20;;;;;;;9.50;7.97;;;11.70;1.00;;;;;;4961243;28;20203;-64
2022/04/15 07:31:47;;;;;;;11.13;7.13;;;11.70;1.00;;;;;;4962315;28;20530;-65
2022/04/15 07:34:14;;;;;;;9.13;6.97;;;11.70;1.00;;;;;;4945812;28;20206;-62
2022/04/15 07:39:11;;;;;;;9.70;7.50;;;11.30;1.00;;;;;;4952686;28;20209;-65
2022/04/15 07:41:38;;;;;;;10.17;7.87;;;11.30;1.00;;;;;;4960111;28;20286;-63
2022/04/15 07:44:10;;;;;;;8.47;7.67;;;10.90;1.00;;;;;;4951209;28;20281;-64
2022/04/15 07:46:40;;;;;;;9.13;7.83;;;10.80;1.00;;;;;;4941555;28;20223;-63
2022/04/15 07:49:07;;;;;;;9.10;7.27;;;11.00;1.00;;;;;;4951925;28;20222;-63
2022/04/15 07:51:36;;;;;;;10.00;7.90;;;11.10;1.00;;;;;;4943252;28;20276;-65
2022/04/15 07:54:05;;;;;;;10.37;7.77;;;11.40;1.00;;;;;;4963876;28;20195;-65
2022/04/15 07:56:33;;;;;;;9.87;8.37;;;11.10;1.00;;;;;;4951364;28;20454;-64
2022/04/15 07:59:04;;;;;;;9.83;7.63;;;10.70;1.00;;;;;;4945027;28;20230;-63
2022/04/15 08:01:31;;;;;;;11.50;8.33;;;11.10;6.80;;;;;;4947139;28;20637;-62
2022/04/15 08:03:59;;;;;;;8.67;6.73;;;11.20;1.00;;;;;;4955977;28;20206;-62
2022/04/15 08:06:28;;;;;;;15.37;8.80;;;11.40;1.00;;;;;;4958366;28;20281;-62
2022/04/15 08:08:59;;;;;;;9.73;8.30;;;11.90;1.00;;;;;;4928679;28;20198;-62
2022/04/15 08:11:27;;;;;;;8.83;7.37;;;12.10;1.00;;;;;;4956895;28;20206;-63
2022/04/15 08:13:55;;;;;;;9.07;8.13;;;12.10;99.90;;;;;;4944087;28;20528;-63
2022/04/15 08:16:24;;;;;;;11.27;10.07;;;11.50;1.00;;;;;;4955226;28;20202;-63
2022/04/15 08:18:52;;;;;;;9.20;6.97;;;11.70;1.00;;;;;;4959263;28;20753;-61
2022/04/15 08:21:19;;;;;;;9.70;6.40;;;11.80;1.00;;;;;;4932092;28;20230;-66
2022/04/15 08:23:47;;;;;;;10.17;7.10;;;12.10;1.00;;;;;;4950443;28;20879;-63
2022/04/15 08:26:14;;;;;;;11.90;7.90;;;11.90;1.00;;;;;;4946781;28;20227;-63
2022/04/15 08:28:41;;;;;;;9.37;8.10;;;11.70;1.00;;;;;;4930163;29;20203;-63
2022/04/15 08:31:12;;;;;;;9.93;7.90;;;11.30;1.00;;;;;;4934584;29;20199;-63
2022/04/15 08:33:40;;;;;;;9.93;6.80;;;11.20;1.00;;;;;;4946413;28;20270;-62
2022/04/15 08:36:07;;;;;;;8.20;6.13;;;11.00;1.00;;;;;;4945832;28;20707;-63
2022/04/15 08:38:34;;;;;;;7.77;6.60;;;11.20;1.00;;;;;;4946383;29;20271;-62
2022/04/15 08:41:01;;;;;;;8.17;6.77;;;11.20;1.00;;;;;;4946661;29;20211;-62
2022/04/15 08:43:29;;;;;;;8.20;6.10;;;11.40;1.00;;;;;;4945929;28;20226;-64
2022/04/15 08:45:56;;;;;;;9.00;6.80;;;11.50;1.00;;;;;;4925194;28;20745;-63
2022/04/15 08:48:25;;;;;;;9.70;6.40;;;11.50;1.00;;;;;;4908591;29;20631;-62
2022/04/15 08:50:52;;;;;;;7.83;6.50;;;11.60;1.00;;;;;;4946005;28;20203;-63
2022/04/15 08:53:23;;;;;;;7.23;6.20;;;11.60;1.00;;;;;;4946184;28;20709;-63
2022/04/15 09:00:05;;;;;;;6.30;5.67;;;11.60;1.00;;;;;;4947321;23;20352;-78
2022/04/15 09:02:37;;;;;;;10.10;7.10;;;12.10;1.00;;;;;;4930396;29;20191;-78
2022/04/15 09:05:10;;;;;;;6.73;5.40;;;12.40;1.00;;;;;;4915675;29;20198;-78
2022/04/15 09:07:37;;;;;;;6.67;6.00;;;12.40;99.90;;;;;;4912911;28;20723;-78
2022/04/15 09:10:07;;;;;;;5.80;5.10;;;12.40;1.00;;;;;;4928473;28;20207;-80
2022/04/15 09:12:38;;;;;;;5.37;4.87;;;12.50;99.90;;;;;;4913264;29;20342;-79
2022/04/15 09:15:13;;;;;;;5.60;5.00;;;13.00;99.90;;;;;;4927637;28;20187;-78
2022/04/15 09:17:49;;;;;;;6.13;5.40;;;13.20;99.90;;;;;;4933445;28;20282;-78
2022/04/15 09:20:17;;;;;;;6.35;4.90;;;12.30;99.90;;;;;;4952233;23;20704;-62
2022/04/15 09:22:44;;;;;;;6.43;4.83;;;11.50;1.00;;;;;;4965400;28;20297;-62
2022/04/15 09:25:12;;;;;;;5.67;4.87;;;11.20;1.00;;;;;;4962977;28;20707;-62
2022/04/15 09:27:39;;;;;;;7.70;4.53;;;11.60;1.00;;;;;;4942275;28;20230;-63
2022/04/15 09:30:06;;;;;;;6.33;4.57;;;12.30;99.90;;;;;;4961771;28;20286;-63
2022/04/15 09:32:34;;;;;;;5.97;4.60;;;12.90;99.90;;;;;;4962691;28;20203;-62
2022/04/15 09:35:04;;;;;;;7.93;4.60;;;13.20;99.90;;;;;;4965451;28;20285;-63
2022/04/15 09:37:39;;;;;;;4.23;3.83;;;13.30;99.90;;;;;;4932964;28;20202;-63
2022/04/15 09:40:15;;;;;;;5.27;4.50;;;13.80;27.70;;;;;;4950904;28;20409;-63
2022/04/15 09:42:49;;;;;;;4.50;3.70;;;14.30;1.00;;;;;;4944331;28;20651;-64
2022/04/15 09:45:21;;;;;;;6.20;4.30;;;14.50;1.00;;;;;;4961982;28;20248;-63
2022/04/15 09:47:51;;;;;;;4.63;4.07;;;14.70;1.00;;;;;;4964569;28;20242;-62
2022/04/15 09:50:47;;;;;;;4.07;3.30;;;14.00;1.00;;;;;;4948450;28;20281;-63
2022/04/15 09:53:15;;;;;;;5.43;4.03;;;14.30;1.00;;;;;;4938298;28;20202;-62
2022/04/15 09:55:48;;;;;;;4.60;4.10;;;14.30;1.00;;;;;;4948061;28;20199;-62
2022/04/15 09:58:17;;;;;;;5.40;4.30;;;13.70;1.00;;;;;;4949199;28;20764;-64
2022/04/15 10:00:48;;;;;;;7.30;5.30;;;13.90;1.00;;;;;;4961992;28;20247;-63
2022/04/15 10:03:20;;;;;;;8.10;4.93;;;14.10;1.00;;;;;;4961830;28;20253;-63
2022/04/15 10:05:49;;;;;;;6.20;4.80;;;14.20;1.00;;;;;;4945616;28;20273;-63
2022/04/15 10:08:20;;;;;;;5.97;4.93;;;14.30;1.00;;;;;;4939646;28;20230;-63
2022/04/15 10:10:48;;;;;;;6.07;4.47;;;14.40;1.00;;;;;;4962454;28;20190;-63
2022/04/15 10:13:16;;;;;;;5.63;4.47;;;14.50;1.00;;;;;;4943883;28;20544;-63
2022/04/15 10:15:47;;;;;;;5.60;4.77;;;14.80;1.00;;;;;;4930049;28;20203;-63
2022/04/15 10:18:15;;;;;;;5.20;4.70;;;14.30;1.00;;;;;;4960989;28;20281;-62
2022/04/15 10:20:43;;;;;;;6.30;5.00;;;14.10;1.00;;;;;;4964644;28;20221;-62
2022/04/15 10:23:12;;;;;;;5.97;4.67;;;14.10;1.00;;;;;;4960021;28;20191;-63
2022/04/15 10:25:44;;;;;;;6.57;4.47;;;14.30;1.00;;;;;;4964148;28;20273;-64
2022/04/15 10:28:19;;;;;;;6.53;4.70;;;14.40;1.00;;;;;;4963526;28;20844;-62
2022/04/15 10:31:07;;;;;;;18.33;11.10;;;14.60;1.00;;;;;;4947845;28;20190;-63
2022/04/15 10:33:35;;;;;;;15.53;9.80;;;14.80;1.00;;;;;;4948470;28;20195;-63
2022/04/15 10:36:14;;;;;;;10.87;7.67;;;15.00;1.00;;;;;;4961141;28;20190;-63
2022/04/15 10:39:20;;;;;;;10.43;6.93;;;14.90;1.00;;;;;;4956911;28;20854;-62
2022/04/15 10:41:50;;;;;;;19.60;15.13;;;14.90;1.00;;;;;;4963760;28;20669;-63
2022/04/15 10:44:47;;;;;;;7.63;5.85;;;15.60;1.00;;;;;;4961085;28;20202;-63
2022/04/15 10:47:17;;;;;;;8.57;6.07;;;15.90;1.00;;;;;;4931257;28;20215;-63
2022/04/15 10:49:57;;;;;;;5.88;4.93;;;15.30;1.00;;;;;;4941904;28;20206;-63
2022/04/15 10:52:27;;;;;;;11.30;8.47;;;14.80;1.00;;;;;;4964243;28;20645;-63
2022/04/15 10:55:04;;;;;;;11.13;8.93;;;14.70;1.00;;;;;;4962620;28;20206;-63
2022/04/15 10:57:40;;;;;;;15.03;10.87;;;14.50;1.00;;;;;;4937624;28;20206;-63
2022/04/15 11:03:23;;;;;;;13.13;7.30;;;14.40;1.00;;;;;;4961835;28;20266;-63
2022/04/15 11:05:52;;;;;;;11.50;8.70;;;14.10;1.00;;;;;;4946256;28;20892;-63
2022/04/15 11:08:21;;;;;;;17.73;10.17;;;13.80;96.70;;;;;;4945108;28;20230;-62
2022/04/15 11:11:03;;;;;;;12.33;8.00;;;13.90;99.90;;;;;;4962861;28;20261;-62
2022/04/15 11:13:33;;;;;;;7.57;5.80;;;14.30;1.00;;;;;;4953554;28;20198;-63
2022/04/15 11:16:02;;;;;;;10.23;7.70;;;14.10;1.00;;;;;;4964152;28;20187;-63
2022/04/15 11:18:48;;;;;;;9.13;6.30;;;14.70;21.50;;;;;;4963326;28;20199;-63
2022/04/15 11:21:32;;;;;;;7.87;6.20;;;14.90;1.00;;;;;;4961239;28;20235;-63
2022/04/15 11:24:12;;;;;;;10.57;6.70;;;15.10;1.00;;;;;;4961705;28;20187;-63
2022/04/15 11:26:44;;;;;;;8.80;6.33;;;15.50;1.00;;;;;;4959025;28;20624;-63
2022/04/15 11:29:13;;;;;;;8.57;6.17;;;15.40;1.00;;;;;;4929990;28;20275;-63
2022/04/15 11:31:45;;;;;;;6.22;5.43;;;16.00;1.00;;;;;;4945280;28;20294;-63
2022/04/15 11:34:17;;;;;;;5.07;4.53;;;16.30;1.00;;;;;;4946174;28;20191;-63
2022/04/15 11:36:49;;;;;;;7.10;5.47;;;16.50;1.00;;;;;;4961432;28;20213;-63
2022/04/15 11:39:18;;;;;;;6.22;4.95;;;17.20;1.00;;;;;;4962086;28;20205;-63
2022/04/15 11:41:50;;;;;;;8.05;5.80;;;17.30;1.00;;;;;;4945066;28;20203;-63
2022/04/15 11:44:18;;;;;;;6.28;5.28;;;17.30;1.00;;;;;;4961169;28;20198;-63
2022/04/15 11:46:48;;;;;;;8.38;5.32;;;17.20;1.00;;;;;;4962168;28;20648;-63
2022/04/15 11:49:22;;;;;;;6.45;5.10;;;17.20;1.00;;;;;;4963022;28;20198;-63
2022/04/15 11:51:54;;;;;;;5.72;5.03;;;17.50;1.00;;;;;;4962344;28;20206;-63
2022/04/15 11:54:31;;;;;;;6.13;5.47;;;17.00;1.00;;;;;;4942982;28;20198;-63
2022/04/15 11:56:59;;;;;;;6.65;4.57;;;15.60;1.00;;;;;;4945592;28;20198;-63
2022/04/15 11:59:27;;;;;;;6.72;5.10;;;15.80;1.00;;;;;;4945480;28;20291;-63
2022/04/15 12:01:54;;;;;;;7.68;5.00;;;16.40;1.00;;;;;;4964300;28;20319;-63
2022/04/15 12:04:21;;;;;;;6.18;5.10;;;16.10;1.00;;;;;;4961764;28;20262;-63
2022/04/15 12:06:48;;;;;;;6.85;5.07;;;16.30;1.00;;;;;;4949662;28;20341;-63
2022/04/15 12:09:16;;;;;;;6.82;4.60;;;16.50;1.00;;;;;;4961074;28;20205;-63
2022/04/15 12:12:05;;;;;;;5.28;4.78;;;16.90;1.00;;;;;;4962573;28;20229;-63
2022/04/15 12:14:42;;;;;;;8.32;5.55;;;16.90;1.00;;;;;;4945547;28;20206;-63
2022/04/15 12:17:17;;;;;;;5.90;5.10;;;16.70;1.00;;;;;;4964527;28;20228;-62
2022/04/15 12:19:44;;;;;;;5.95;5.00;;;16.50;1.00;;;;;;4943736;28;20681;-62
2022/04/15 12:22:11;;;;;;;5.03;4.20;;;16.30;1.00;;;;;;4961866;28;20257;-62
2022/04/15 12:24:38;;;;;;;5.72;4.80;;;16.50;1.00;;;;;;4960102;28;20665;-63
2022/04/15 12:27:06;;;;;;;4.85;4.40;;;16.70;1.00;;;;;;4935109;28;20218;-63
2022/04/15 12:29:48;;;;;;;5.40;4.90;;;17.10;1.00;;;;;;4960003;28;20246;-64
2022/04/15 12:32:29;;;;;;;5.13;4.63;;;17.60;1.00;;;;;;4963749;28;20194;-64
2022/04/15 12:34:59;;;;;;;6.97;4.60;;;17.90;1.00;;;;;;4944676;28;20212;-62
2022/04/15 12:37:56;;;;;;;5.53;4.47;;;18.20;1.00;;;;;;4951961;28;20213;-63
2022/04/15 12:40:24;;;;;;;6.53;4.00;;;18.00;1.00;;;;;;4961825;28;20236;-63
2022/04/15 12:42:53;;;;;;;5.07;4.53;;;17.80;1.00;;;;;;4952847;28;20255;-62
2022/04/15 12:45:23;;;;;;;6.10;4.75;;;17.10;1.00;;;;;;4960619;28;20297;-62
2022/04/15 12:48:03;;;;;;;6.40;4.50;;;16.90;1.00;;;;;;4966003;28;20218;-62
2022/04/15 12:50:35;;;;;;;5.82;4.90;;;17.20;1.00;;;;;;4928669;28;20206;-63
2022/04/15 12:53:16;;;;;;;9.43;5.05;;;17.10;1.00;;;;;;4963896;28;20197;-63
2022/04/15 12:55:44;;;;;;;5.75;4.22;;;17.10;1.00;;;;;;4962680;28;20193;-64
2022/04/15 12:58:28;;;;;;;6.72;4.97;;;17.00;1.00;;;;;;4958759;28;20746;-63
2022/04/15 13:00:58;;;;;;;8.05;4.95;;;16.70;1.00;;;;;;4945950;28;20210;-63
2022/04/15 13:03:34;;;;;;;6.28;5.22;;;16.90;1.00;;;;;;4960003;28;20777;-64
2022/04/15 13:06:02;;;;;;;8.05;5.72;;;16.50;1.00;;;;;;4952116;28;20206;-64
2022/04/15 13:08:29;;;;;;;6.20;5.57;;;16.40;1.00;;;;;;4962115;28;20234;-63
2022/04/15 13:10:56;;;;;;;11.02;8.63;;;16.60;1.00;;;;;;4962251;28;20222;-63
2022/04/15 13:13:34;;;;;;;6.18;5.43;;;16.50;1.00;;;;;;4946285;28;20435;-64